createdAt,value
2023-02-02T00:45:18.120Z,6.80
2023-02-02T00:48:04.871Z,6.40
2023-02-02T00:50:50.763Z,6.45
2023-02-02T00:53:36.555Z,6.82
2023-02-02T00:56:22.123Z,3.58
2023-02-02T00:59:07.558Z,5.53
2023-02-02T01:47:43.604Z,4.63
2023-02-02T01:50:33.836Z,2.85
2023-02-02T01:53:20.682Z,5.63
2023-02-02T01:56:08.071Z,5.38
2023-02-02T01:58:53.360Z,4.50
2023-02-02T02:47:31.585Z,2.85
2023-02-02T02:50:17.561Z,3.40
2023-02-02T02:53:09.720Z,5.55
2023-02-02T02:56:14.683Z,4.50
2023-02-02T02:59:11.129Z,3.40
2023-02-02T03:47:39.016Z,3.45
2023-02-02T03:50:25.445Z,5.22
2023-02-02T03:53:10.653Z,3.97
2023-02-02T03:55:55.848Z,3.65
2023-02-02T03:58:40.977Z,4.78
2023-02-02T04:45:38.990Z,3.53
2023-02-02T04:48:24.541Z,3.40
2023-02-02T04:51:13.476Z,3.40
2023-02-02T04:53:58.918Z,3.17
2023-02-02T04:56:44.253Z,3.00
2023-02-02T04:59:30.087Z,3.45
2023-02-02T05:48:14.459Z,4.18
2023-02-02T05:51:05.615Z,3.28
2023-02-02T05:53:50.906Z,4.40
2023-02-02T05:56:36.640Z,3.87
2023-02-02T05:59:22.799Z,3.88
2023-02-02T06:02:07.961Z,4.38
2023-02-02T06:04:53.761Z,2.42
2023-02-02T06:07:39.298Z,3.78
2023-02-02T06:10:24.259Z,3.53
2023-02-02T06:13:09.618Z,2.80
2023-02-02T06:15:54.916Z,3.50
2023-02-02T06:18:40.100Z,4.05
2023-02-02T06:21:25.477Z,4.38
2023-02-02T06:24:10.796Z,5.07
2023-02-02T06:26:56.215Z,3.22
2023-02-02T06:29:41.403Z,3.88
2023-02-02T06:32:29.889Z,2.88
2023-02-02T06:35:15.291Z,2.47
2023-02-02T06:38:00.728Z,6.63
2023-02-02T06:40:46.068Z,3.92
2023-02-02T06:43:31.322Z,5.38
2023-02-02T06:46:17.055Z,3.33
2023-02-02T06:49:02.614Z,3.05
2023-02-02T06:51:48.672Z,3.00
2023-02-02T06:54:33.984Z,5.78
2023-02-02T06:57:19.127Z,3.88
2023-02-02T07:00:05.004Z,3.83
2023-02-02T07:02:50.247Z,3.67
2023-02-02T07:05:35.343Z,3.23
2023-02-02T07:08:21.388Z,4.60
2023-02-02T07:11:13.855Z,15.32
2023-02-02T07:14:01.557Z,6.72
2023-02-02T07:16:46.971Z,5.72
2023-02-02T07:19:32.159Z,6.47
2023-02-02T07:22:17.401Z,3.95
2023-02-02T07:25:02.710Z,6.45
2023-02-02T07:27:48.131Z,5.40
2023-02-02T07:30:33.702Z,8.32
2023-02-02T07:33:18.834Z,4.63
2023-02-02T07:36:04.328Z,7.10
2023-02-02T07:38:54.209Z,7.28
2023-02-02T07:41:40.189Z,7.30
2023-02-02T07:44:33.328Z,6.65
2023-02-02T07:47:18.534Z,7.00
2023-02-02T07:50:04.386Z,7.30
2023-02-02T07:52:50.112Z,5.55
2023-02-02T07:55:35.303Z,5.18
2023-02-02T07:58:20.887Z,5.85
2023-02-02T08:01:08.643Z,13.30
2023-02-02T08:03:55.244Z,7.75
2023-02-02T08:06:40.675Z,9.50
2023-02-02T08:09:25.864Z,13.35
2023-02-02T08:12:11.172Z,8.95
2023-02-02T08:14:56.480Z,10.10
2023-02-02T08:17:45.607Z,7.13
2023-02-02T08:20:31.219Z,8.00
2023-02-02T08:23:16.737Z,9.20
2023-02-02T08:26:10.529Z,6.80
2023-02-02T08:29:02.386Z,8.30
2023-02-02T08:31:47.654Z,6.30
2023-02-02T08:34:36.842Z,7.25
2023-02-02T08:37:22.155Z,6.78
2023-02-02T08:40:08.282Z,6.85
2023-02-02T08:42:55.268Z,6.70
2023-02-02T08:46:03.303Z,5.50
2023-02-02T08:48:48.945Z,5.15
2023-02-02T08:51:34.483Z,4.55
2023-02-02T08:54:19.773Z,4.78
2023-02-02T08:57:05.089Z,7.80
2023-02-02T08:59:50.731Z,5.88
2023-02-02T09:02:36.049Z,7.88
2023-02-02T09:05:21.507Z,5.88
2023-02-02T09:08:06.897Z,5.95
2023-02-02T09:10:52.642Z,7.13
2023-02-02T09:13:39.943Z,5.80
2023-02-02T09:16:27.054Z,5.60
2023-02-02T09:19:12.358Z,6.13
2023-02-02T09:21:57.606Z,6.10
2023-02-02T09:24:42.816Z,6.83
2023-02-02T09:27:28.063Z,6.75
2023-02-02T09:30:13.982Z,8.32
2023-02-02T09:32:59.101Z,10.02
2023-02-02T09:35:44.132Z,6.32
2023-02-02T09:38:29.342Z,9.53
2023-02-02T09:41:39.420Z,15.85
2023-02-02T09:44:24.902Z,34.33
2023-02-02T09:47:22.496Z,18.05
2023-02-02T09:50:22.877Z,21.30
2023-02-02T09:53:24.203Z,15.60
2023-02-02T09:56:18.616Z,19.73
2023-02-02T09:59:19.193Z,11.50
2023-02-02T10:02:39.589Z,21.30
2023-02-02T10:05:29.919Z,11.15
2023-02-02T10:08:34.322Z,9.47
2023-02-02T10:11:41.455Z,9.93
2023-02-02T10:14:42.067Z,12.02
2023-02-02T10:17:49.820Z,10.55
2023-02-02T10:20:47.976Z,9.27
2023-02-02T10:23:41.365Z,11.03
2023-02-02T10:26:45.625Z,8.82
2023-02-02T10:29:58.422Z,9.50
2023-02-02T10:33:01.213Z,8.57
2023-02-02T10:36:30.255Z,6.70
2023-02-02T10:39:25.484Z,10.60
2023-02-02T10:42:37.886Z,6.72
2023-02-02T10:45:23.618Z,6.78
2023-02-02T10:48:22.990Z,10.63
2023-02-02T10:51:35.471Z,7.70
2023-02-02T10:54:55.984Z,6.50
2023-02-02T10:58:00.623Z,6.18
2023-02-02T11:00:46.548Z,5.70
2023-02-02T11:03:32.742Z,4.75
2023-02-02T11:06:36.750Z,6.75
2023-02-02T11:09:28.389Z,9.63
2023-02-02T11:12:24.885Z,5.38
2023-02-02T11:15:29.528Z,3.58
2023-02-02T11:18:29.246Z,4.63
2023-02-02T11:21:30.035Z,6.22
2023-02-02T11:24:26.721Z,7.93
2023-02-02T11:27:15.220Z,5.93
2023-02-02T11:30:22.384Z,5.38
2023-02-02T11:33:29.741Z,6.97
2023-02-02T11:36:21.174Z,5.82
2023-02-02T11:39:36.151Z,5.17
2023-02-02T11:42:24.225Z,4.97
2023-02-02T11:45:18.146Z,4.82
2023-02-02T11:48:29.175Z,4.68
2023-02-02T11:51:23.753Z,9.43
2023-02-02T11:54:21.439Z,6.27
2023-02-02T11:57:10.608Z,7.38
2023-02-02T12:00:11.149Z,10.32
2023-02-02T12:02:58.167Z,6.78
2023-02-02T12:05:46.702Z,7.20
2023-02-02T12:08:32.355Z,5.03
2023-02-02T12:11:56.594Z,4.80
2023-02-02T12:15:03.370Z,3.83
2023-02-02T12:17:48.874Z,4.20
2023-02-02T12:21:02.330Z,7.85
2023-02-02T12:23:57.503Z,4.67
2023-02-02T12:26:56.250Z,6.63
2023-02-02T12:29:54.262Z,7.32
2023-02-02T12:32:45.803Z,7.68
2023-02-02T12:35:54.117Z,6.43
2023-02-02T12:39:00.517Z,4.77
2023-02-02T12:42:12.889Z,5.50
2023-02-02T12:45:19.955Z,2.90
2023-02-02T12:48:24.358Z,6.53
2023-02-02T12:51:09.727Z,5.03
2023-02-02T12:54:33.081Z,5.23
2023-02-02T12:57:23.347Z,4.93
2023-02-02T13:00:14.379Z,4.80
2023-02-02T13:03:05.635Z,5.88
2023-02-02T13:05:53.363Z,4.90
2023-02-02T13:08:47.704Z,6.40
2023-02-02T13:11:45.845Z,5.90
2023-02-02T13:14:41.765Z,6.43
2023-02-02T13:17:36.278Z,7.40
2023-02-02T13:20:47.855Z,9.13
2023-02-02T13:23:55.818Z,4.93
2023-02-02T13:26:45.721Z,7.30
2023-02-02T13:29:47.655Z,6.75
2023-02-02T13:32:39.758Z,5.75
2023-02-02T13:35:51.094Z,5.70
2023-02-02T13:38:41.915Z,8.30
2023-02-02T13:41:29.094Z,3.45
2023-02-02T13:44:49.098Z,5.40
2023-02-02T13:47:45.279Z,6.95
2023-02-02T13:50:34.907Z,6.88
2023-02-02T13:54:00.775Z,5.60
2023-02-02T13:57:19.814Z,5.28
2023-02-02T14:00:17.097Z,6.63
2023-02-02T14:03:06.272Z,5.75
2023-02-02T14:06:19.390Z,6.13
2023-02-02T14:09:06.048Z,6.90
2023-02-02T14:12:02.417Z,5.72
2023-02-02T14:14:47.519Z,5.32
2023-02-02T14:17:32.712Z,4.45
2023-02-02T14:20:39.481Z,4.72
2023-02-02T14:23:51.144Z,4.47
2023-02-02T14:26:46.966Z,5.18
2023-02-02T14:29:32.129Z,5.53
2023-02-02T14:32:29.379Z,3.50
2023-02-02T14:35:15.097Z,4.72
2023-02-02T14:38:13.483Z,4.37
2023-02-02T14:41:14.671Z,3.38
2023-02-02T14:44:05.330Z,3.45
2023-02-02T14:46:50.934Z,2.40
2023-02-02T14:49:36.219Z,3.63
2023-02-02T14:52:23.093Z,5.53
2023-02-02T14:55:19.824Z,3.80
2023-02-02T14:58:06.665Z,3.58
2023-02-02T15:01:25.762Z,4.70
2023-02-02T15:04:21.056Z,4.18
2023-02-02T15:07:24.781Z,4.57
2023-02-02T15:10:10.353Z,3.47
2023-02-02T15:13:07.235Z,5.00
2023-02-02T15:16:05.599Z,5.65
2023-02-02T15:19:16.341Z,4.85
2023-02-02T15:22:33.808Z,4.23
2023-02-02T15:25:24.692Z,5.32
2023-02-02T15:28:28.565Z,4.88
2023-02-02T15:31:29.230Z,3.63
2023-02-02T15:34:24.957Z,3.35
2023-02-02T15:37:23.391Z,4.20
2023-02-02T15:40:14.843Z,3.97
2023-02-02T15:43:03.457Z,3.78
2023-02-02T15:45:55.967Z,3.97
2023-02-02T15:48:43.803Z,3.35
2023-02-02T15:51:30.194Z,3.07
2023-02-02T15:54:30.244Z,5.15
2023-02-02T15:57:29.841Z,3.92
2023-02-02T16:00:29.499Z,4.60
2023-02-02T16:03:22.005Z,4.22
2023-02-02T16:06:07.913Z,5.17
2023-02-02T16:08:53.571Z,3.42
2023-02-02T16:11:42.501Z,4.68
2023-02-02T16:14:28.516Z,3.75
2023-02-02T16:17:22.049Z,9.80
2023-02-02T16:20:14.414Z,3.90
2023-02-02T16:23:02.271Z,4.80
2023-02-02T16:25:51.602Z,5.68
2023-02-02T16:28:37.001Z,4.68
2023-02-02T16:31:22.587Z,5.45
2023-02-02T16:34:17.953Z,3.97
2023-02-02T16:37:22.243Z,4.68
2023-02-02T16:40:29.390Z,3.35
2023-02-02T16:43:20.440Z,5.38
2023-02-02T16:46:17.581Z,5.22
2023-02-02T16:49:05.557Z,5.33
2023-02-02T16:52:14.472Z,6.70
2023-02-02T16:55:00.494Z,6.20
2023-02-02T16:57:48.158Z,3.42
2023-02-02T17:00:33.516Z,6.22
2023-02-02T17:03:20.665Z,6.67
2023-02-02T17:06:06.777Z,4.38
2023-02-02T17:08:52.423Z,4.53
2023-02-02T17:11:38.152Z,5.68
2023-02-02T17:14:29.993Z,4.35
2023-02-02T17:17:14.915Z,4.77
2023-02-02T17:20:00.652Z,6.38
2023-02-02T17:22:49.504Z,4.90
2023-02-02T17:25:41.986Z,5.25
2023-02-02T17:28:27.855Z,3.90
2023-02-02T17:31:15.960Z,6.20
2023-02-02T17:34:01.061Z,5.45
2023-02-02T17:36:46.479Z,4.50
2023-02-02T17:39:31.774Z,5.22
2023-02-02T17:42:24.638Z,4.63
2023-02-02T17:45:17.495Z,7.67
2023-02-02T17:48:03.539Z,3.85
2023-02-02T17:50:48.935Z,6.13
2023-02-02T17:53:34.567Z,4.68
2023-02-02T17:56:20.746Z,8.57
2023-02-02T17:59:06.922Z,3.63
2023-02-02T18:01:55.000Z,4.43
2023-02-02T18:04:40.300Z,4.75
2023-02-02T18:07:25.815Z,6.85
2023-02-02T18:10:13.952Z,4.07
2023-02-02T18:12:59.166Z,6.03
2023-02-02T18:15:45.298Z,4.82
2023-02-02T18:18:30.898Z,4.40
2023-02-02T18:21:16.579Z,3.08
2023-02-02T18:24:02.242Z,5.75
2023-02-02T18:26:47.559Z,4.93
2023-02-02T18:29:32.816Z,5.32
2023-02-02T18:32:18.101Z,7.00
2023-02-02T18:35:03.901Z,5.15
2023-02-02T18:37:49.333Z,3.47
2023-02-02T18:40:34.699Z,5.43
2023-02-02T18:43:20.046Z,5.15
2023-02-02T18:46:08.930Z,4.82
2023-02-02T18:48:55.396Z,4.50
2023-02-02T18:51:41.834Z,4.32
2023-02-02T18:54:26.853Z,4.33
2023-02-02T18:57:14.985Z,4.50
2023-02-02T19:00:00.760Z,4.38
2023-02-02T19:02:45.934Z,4.07
2023-02-02T19:05:50.144Z,4.00
2023-02-02T19:08:35.411Z,4.10
2023-02-02T19:11:22.931Z,3.38
2023-02-02T19:14:18.221Z,3.30
2023-02-02T19:17:24.531Z,4.63
2023-02-02T19:20:23.784Z,4.38
2023-02-02T19:23:14.978Z,3.30
2023-02-02T19:26:00.403Z,5.57
2023-02-02T19:28:45.893Z,6.65
2023-02-02T19:31:31.473Z,4.63
2023-02-02T19:34:20.954Z,3.70
2023-02-02T19:37:26.825Z,7.17
2023-02-02T19:40:13.430Z,4.65
2023-02-02T19:43:18.746Z,4.57
2023-02-02T19:46:16.643Z,5.03
2023-02-02T19:49:11.837Z,5.25
2023-02-02T19:51:59.903Z,4.27
2023-02-02T19:54:48.924Z,6.38
2023-02-02T19:57:41.908Z,7.47
2023-02-02T20:00:31.522Z,4.53
2023-02-02T20:03:42.861Z,8.25
2023-02-02T20:06:30.608Z,6.10
2023-02-02T20:09:18.958Z,6.82
2023-02-02T20:12:21.341Z,5.43
2023-02-02T20:15:28.223Z,7.82
2023-02-02T20:18:21.011Z,6.07
2023-02-02T20:21:17.641Z,6.53
2023-02-02T20:24:03.693Z,7.93
2023-02-02T20:26:49.854Z,5.13
2023-02-02T20:29:41.541Z,8.43
2023-02-02T20:32:41.373Z,8.10
2023-02-02T20:35:36.150Z,5.50
2023-02-02T20:38:38.473Z,5.57
2023-02-02T20:41:24.414Z,7.18
2023-02-02T20:44:10.541Z,4.70
2023-02-02T20:46:56.449Z,8.05
2023-02-02T20:49:42.754Z,4.90
2023-02-02T20:52:30.934Z,5.45
2023-02-02T20:55:16.421Z,5.38
2023-02-02T20:58:03.512Z,6.03
2023-02-02T21:00:48.802Z,8.63
2023-02-02T21:03:33.892Z,9.03
2023-02-02T21:06:19.405Z,5.68
2023-02-02T21:09:06.721Z,8.20
2023-02-02T21:11:52.544Z,6.75
2023-02-02T21:14:38.124Z,6.38
2023-02-02T21:17:23.404Z,9.43
2023-02-02T21:20:10.049Z,7.95
2023-02-02T21:22:56.911Z,9.52
2023-02-02T21:25:42.255Z,5.32
2023-02-02T21:28:27.941Z,11.70
2023-02-02T21:31:15.351Z,6.60
2023-02-02T21:34:00.988Z,8.15
2023-02-02T21:36:53.914Z,6.90
2023-02-02T21:39:42.333Z,8.95
2023-02-02T21:42:32.947Z,8.25
2023-02-02T21:45:36.953Z,8.40
2023-02-02T21:48:32.931Z,6.32
2023-02-02T21:51:31.520Z,4.72
2023-02-02T21:54:19.673Z,7.13
2023-02-02T21:57:21.173Z,7.22
2023-02-02T22:00:27.411Z,5.43
2023-02-02T22:03:39.216Z,5.22
2023-02-02T22:06:32.807Z,4.78
2023-02-02T22:09:23.730Z,5.95
2023-02-02T22:12:22.446Z,7.40
2023-02-02T22:15:18.501Z,5.50
2023-02-02T22:18:19.324Z,6.18
2023-02-02T22:21:06.271Z,5.22
2023-02-02T22:23:51.543Z,6.75
2023-02-02T22:26:36.613Z,6.30
2023-02-02T22:29:24.433Z,6.10
2023-02-02T22:32:09.603Z,5.10
2023-02-02T22:34:55.136Z,7.32
2023-02-02T22:37:40.401Z,6.38
2023-02-02T22:40:26.231Z,6.18
2023-02-02T22:43:13.464Z,7.27
2023-02-02T22:45:58.791Z,6.45
2023-02-02T22:48:44.003Z,7.50
2023-02-02T22:51:29.362Z,9.77
2023-02-02T22:54:15.031Z,6.65
2023-02-02T22:57:00.373Z,7.07
2023-02-02T22:59:45.534Z,8.10
2023-02-02T23:02:30.549Z,4.93
2023-02-02T23:05:18.258Z,5.93
2023-02-02T23:08:04.141Z,8.25
2023-02-02T23:10:49.370Z,8.33
2023-02-02T23:13:34.970Z,6.90
2023-02-02T23:16:20.186Z,8.75
2023-02-02T23:19:05.773Z,7.88
2023-02-02T23:21:50.951Z,6.90
2023-02-02T23:24:36.320Z,9.37
2023-02-02T23:27:21.504Z,7.40
2023-02-02T23:30:09.084Z,8.70
2023-02-02T23:32:54.412Z,7.78
2023-02-02T23:35:39.659Z,6.93
2023-02-02T23:38:25.030Z,6.37
2023-02-02T23:41:10.257Z,5.90
2023-02-02T23:43:55.594Z,5.82
2023-02-02T23:46:41.868Z,5.68
2023-02-02T23:49:27.327Z,7.38
2023-02-02T23:52:13.243Z,4.73
2023-02-02T23:55:00.440Z,11.35
2023-02-02T23:57:45.699Z,6.47
